Time;durP1;ratioP1;P1;durP2;ratioP2;P2;SDS_P1;SDS_P2;PMS_P1;PMS_P2;Temp;Humidity;BMP_temperature;BMP_pressure;BME280_temperature;BME280_humidity;BME280_pressure;Samples;Min_cycle;Max_cycle;Signal;HPM_P1;HPM_P2
2022/07/16 00:01:50;;;;;;;13.25;12.55;;;9.80;99.90;;;;;;5033803;28;20048;-70
2022/07/16 00:04:17;;;;;;;12.73;12.07;;;9.60;99.90;;;;;;5060745;28;20101;-69
2022/07/16 00:06:45;;;;;;;12.90;12.18;;;9.70;99.90;;;;;;5051265;28;20040;-70
2022/07/16 00:09:12;;;;;;;12.77;11.95;;;9.60;99.90;;;;;;5061946;28;20085;-69
2022/07/16 00:11:39;;;;;;;12.68;11.98;;;9.60;99.90;;;;;;5036837;28;20056;-70
2022/07/16 00:14:06;;;;;;;12.85;11.70;;;9.60;99.90;;;;;;5061974;28;20048;-70
2022/07/16 00:16:33;;;;;;;11.90;11.23;;;9.60;99.90;;;;;;5067355;28;20440;-70
2022/07/16 00:21:47;;;;;;;10.55;9.95;;;9.80;99.90;;;;;;5035205;28;20216;-70
2022/07/16 00:24:15;;;;;;;12.30;11.10;;;9.70;99.90;;;;;;5040082;28;20435;-70
2022/07/16 00:26:43;;;;;;;11.32;10.70;;;9.70;99.90;;;;;;5040243;28;20039;-70
2022/07/16 00:29:10;;;;;;;12.65;11.38;;;9.80;99.90;;;;;;5047604;28;20055;-70
2022/07/16 00:31:38;;;;;;;12.05;11.35;;;9.90;99.90;;;;;;5049143;28;20044;-70
2022/07/16 00:34:06;;;;;;;11.75;11.15;;;9.90;99.90;;;;;;5051242;28;20059;-70
2022/07/16 00:36:35;;;;;;;12.30;11.57;;;10.00;99.90;;;;;;5041673;28;20804;-70
2022/07/16 00:39:03;;;;;;;12.05;11.43;;;10.10;99.90;;;;;;5059395;28;20068;-70
2022/07/16 00:41:30;;;;;;;12.43;11.77;;;10.10;99.90;;;;;;5070494;28;20579;-70
2022/07/16 00:44:00;;;;;;;12.65;11.98;;;10.10;99.90;;;;;;5065902;28;20041;-70
2022/07/16 00:46:29;;;;;;;13.85;12.82;;;10.10;99.90;;;;;;5064391;28;20247;-70
2022/07/16 00:48:58;;;;;;;13.77;12.85;;;10.10;99.90;;;;;;5044901;28;20062;-70
2022/07/16 00:51:26;;;;;;;14.70;13.65;;;10.10;99.90;;;;;;5056780;28;20047;-70
2022/07/16 00:53:54;;;;;;;14.60;13.70;;;10.30;99.90;;;;;;5029846;28;20179;-70
2022/07/16 00:56:21;;;;;;;14.23;13.20;;;10.50;99.90;;;;;;5057689;28;20178;-69
2022/07/16 00:58:50;;;;;;;14.82;13.93;;;10.60;99.90;;;;;;5047103;28;20494;-69
2022/07/16 01:01:17;;;;;;;14.73;13.93;;;10.60;99.90;;;;;;5061227;28;20040;-69
2022/07/16 01:03:45;;;;;;;15.20;14.35;;;10.70;99.90;;;;;;5054736;28;20040;-69
2022/07/16 01:06:13;;;;;;;15.70;14.70;;;10.80;99.90;;;;;;5053112;28;20224;-69
2022/07/16 01:08:42;;;;;;;15.77;14.75;;;11.10;99.90;;;;;;5068083;28;20048;-69
2022/07/16 01:11:12;;;;;;;16.42;15.40;;;11.10;99.90;;;;;;5045611;28;20410;-69
2022/07/16 01:13:41;;;;;;;15.48;14.38;;;11.30;99.90;;;;;;5059245;28;20208;-70
2022/07/16 01:16:10;;;;;;;15.35;14.55;;;11.40;99.90;;;;;;5046186;28;20485;-69
2022/07/16 01:18:37;;;;;;;15.75;14.85;;;11.50;99.90;;;;;;5052432;28;20056;-69
2022/07/16 01:21:04;;;;;;;16.35;15.23;;;11.50;99.90;;;;;;5069415;28;20052;-69
2022/07/16 01:23:31;;;;;;;17.48;16.48;;;11.60;99.90;;;;;;5036992;28;20254;-70
2022/07/16 01:25:58;;;;;;;17.90;16.80;;;11.70;99.90;;;;;;5040434;28;20067;-70
2022/07/16 01:28:25;;;;;;;19.27;18.02;;;11.90;99.90;;;;;;5082520;28;20073;-69
2022/07/16 01:30:52;;;;;;;18.25;17.15;;;12.10;99.90;;;;;;5061084;28;20041;-70
2022/07/16 01:33:25;;;;;;;18.38;17.20;;;12.10;99.90;;;;;;5049707;28;20037;-69
2022/07/16 01:35:57;;;;;;;17.65;16.65;;;12.20;99.90;;;;;;5052977;28;20044;-69
2022/07/16 01:38:25;;;;;;;17.40;16.23;;;12.20;99.90;;;;;;5047279;28;20264;-69
2022/07/16 01:40:52;;;;;;;17.52;16.42;;;12.10;99.90;;;;;;5060327;28;20395;-69
2022/07/16 01:43:22;;;;;;;17.45;16.20;;;12.20;99.90;;;;;;5043168;28;20044;-69
2022/07/16 01:45:49;;;;;;;17.10;16.08;;;12.30;99.90;;;;;;5049416;28;20076;-70
2022/07/16 01:48:16;;;;;;;17.00;15.90;;;12.50;99.90;;;;;;5039252;28;20049;-69
2022/07/16 01:50:43;;;;;;;17.88;16.73;;;12.40;99.90;;;;;;5051343;28;20626;-69
2022/07/16 01:53:11;;;;;;;18.75;17.55;;;12.50;99.90;;;;;;5047543;28;20497;-69
2022/07/16 01:55:39;;;;;;;18.98;17.50;;;12.40;99.90;;;;;;5055681;28;20071;-69
2022/07/16 01:58:08;;;;;;;18.58;17.35;;;12.50;99.90;;;;;;5041411;28;20441;-70
2022/07/16 02:00:36;;;;;;;19.27;17.80;;;12.50;99.90;;;;;;5059660;28;20542;-69
2022/07/16 02:03:03;;;;;;;18.58;17.50;;;12.50;99.90;;;;;;5071476;28;20076;-69
2022/07/16 02:05:30;;;;;;;18.75;17.63;;;12.60;99.90;;;;;;5063549;28;20089;-69
2022/07/16 02:07:57;;;;;;;19.50;18.20;;;12.60;99.90;;;;;;5041090;28;20041;-69
2022/07/16 02:10:24;;;;;;;20.17;19.02;;;12.70;99.90;;;;;;5059833;28;20442;-70
2022/07/16 02:12:51;;;;;;;20.13;18.75;;;12.80;99.90;;;;;;5058859;28;20040;-69
2022/07/16 02:15:18;;;;;;;20.13;18.70;;;12.80;99.90;;;;;;5027194;28;20096;-70
2022/07/16 02:17:45;;;;;;;20.65;19.05;;;12.90;99.90;;;;;;5036684;28;20105;-70
2022/07/16 02:20:12;;;;;;;19.98;18.67;;;13.00;99.90;;;;;;5064778;28;20356;-69
2022/07/16 02:22:39;;;;;;;19.98;18.67;;;13.00;99.90;;;;;;5038618;28;20090;-69
2022/07/16 02:25:07;;;;;;;19.75;18.55;;;13.20;99.90;;;;;;5074614;28;20530;-70
2022/07/16 02:27:34;;;;;;;20.70;19.13;;;13.20;99.90;;;;;;5044853;28;20069;-69
2022/07/16 02:30:01;;;;;;;20.33;19.13;;;13.30;99.90;;;;;;5048700;28;20113;-70
2022/07/16 02:32:28;;;;;;;21.17;19.48;;;13.40;99.90;;;;;;5068393;28;20056;-69
2022/07/16 02:34:55;;;;;;;20.08;18.77;;;13.40;99.90;;;;;;5036875;28;20064;-70
2022/07/16 02:37:22;;;;;;;20.38;18.88;;;13.50;99.90;;;;;;5045593;28;20117;-69
2022/07/16 02:39:49;;;;;;;19.67;18.50;;;13.50;99.90;;;;;;5049392;28;20056;-69
2022/07/16 02:42:16;;;;;;;20.17;18.88;;;13.60;99.90;;;;;;5046521;28;20048;-69
2022/07/16 02:44:43;;;;;;;21.23;19.70;;;13.60;99.90;;;;;;5045825;28;20521;-69
2022/07/16 02:47:09;;;;;;;21.38;19.90;;;13.70;99.90;;;;;;5042747;28;20479;-70
2022/07/16 02:49:36;;;;;;;20.88;19.27;;;13.70;99.90;;;;;;5028080;28;20862;-69
2022/07/16 02:52:03;;;;;;;20.70;19.23;;;13.70;99.90;;;;;;5069626;28;20522;-70
2022/07/16 02:54:30;;;;;;;20.98;19.58;;;13.70;99.90;;;;;;5047251;28;20048;-69
2022/07/16 02:56:57;;;;;;;20.77;19.48;;;13.80;99.90;;;;;;5069927;28;20301;-69
2022/07/16 02:59:24;;;;;;;21.73;19.90;;;13.80;99.90;;;;;;5061254;28;20264;-69
2022/07/16 03:01:51;;;;;;;21.17;19.55;;;13.80;99.90;;;;;;5056051;28;20494;-70
2022/07/16 03:04:17;;;;;;;19.95;18.65;;;13.80;99.90;;;;;;5056845;28;20090;-69
2022/07/16 03:06:44;;;;;;;20.25;18.85;;;13.80;99.90;;;;;;5060119;28;20397;-69
2022/07/16 03:09:11;;;;;;;20.13;18.73;;;13.90;99.90;;;;;;5063956;28;20123;-70
2022/07/16 03:11:37;;;;;;;20.83;19.17;;;13.90;99.90;;;;;;5044749;28;20151;-69
2022/07/16 03:14:04;;;;;;;20.60;19.15;;;13.90;99.90;;;;;;5044458;28;20147;-69
2022/07/16 03:16:31;;;;;;;20.13;18.70;;;13.90;99.90;;;;;;5043265;28;20052;-69
2022/07/16 03:18:58;;;;;;;21.85;20.00;;;13.90;99.90;;;;;;5057141;28;20068;-70
2022/07/16 03:21:24;;;;;;;20.85;19.45;;;14.00;99.90;;;;;;5054405;28;20036;-70
2022/07/16 03:23:51;;;;;;;21.65;19.98;;;14.00;99.90;;;;;;5044015;28;20422;-70
2022/07/16 03:26:18;;;;;;;21.85;20.13;;;14.00;99.90;;;;;;5035950;28;20040;-69
2022/07/16 03:28:45;;;;;;;22.00;20.52;;;14.10;99.90;;;;;;5062512;28;20071;-70
2022/07/16 03:31:12;;;;;;;21.58;19.98;;;14.10;99.90;;;;;;5051719;28;20051;-69
2022/07/16 03:33:38;;;;;;;21.00;19.50;;;14.20;99.90;;;;;;5041165;28;20076;-69
2022/07/16 03:36:05;;;;;;;21.00;19.58;;;14.20;99.90;;;;;;5028543;28;20155;-70
2022/07/16 03:41:18;;;;;;;21.25;19.70;;;14.20;99.90;;;;;;5039688;28;20040;-69
2022/07/16 03:43:45;;;;;;;20.60;19.02;;;14.30;99.90;;;;;;5040546;28;20045;-70
2022/07/16 03:46:13;;;;;;;20.20;18.65;;;14.30;99.90;;;;;;5072672;22;20487;-73
2022/07/16 03:48:40;;;;;;;20.63;19.10;;;14.30;99.90;;;;;;5056705;28;20043;-73
2022/07/16 03:51:08;;;;;;;20.45;18.88;;;14.40;99.90;;;;;;5066516;28;20124;-73
2022/07/16 03:53:35;;;;;;;20.75;19.13;;;14.40;99.90;;;;;;5067345;28;20044;-73
2022/07/16 03:56:03;;;;;;;21.17;19.50;;;14.50;99.90;;;;;;5060529;28;20039;-73
2022/07/16 03:58:29;;;;;;;20.77;19.23;;;14.50;99.90;;;;;;5065161;28;20036;-73
2022/07/16 04:00:57;;;;;;;21.40;19.77;;;14.50;99.90;;;;;;5054484;28;20051;-73
2022/07/16 04:03:24;;;;;;;19.77;18.13;;;14.50;99.90;;;;;;5054040;28;20427;-73
2022/07/16 04:05:51;;;;;;;19.63;18.30;;;14.60;99.90;;;;;;5060044;28;20139;-73
2022/07/16 04:08:19;;;;;;;19.98;18.15;;;14.60;99.90;;;;;;5059034;28;20060;-72
2022/07/16 04:10:46;;;;;;;19.02;17.65;;;14.70;99.90;;;;;;5057922;28;20044;-73
2022/07/16 04:13:13;;;;;;;20.60;19.10;;;14.60;99.90;;;;;;5037162;28;20109;-73
2022/07/16 04:15:40;;;;;;;19.60;18.38;;;14.70;99.90;;;;;;5051010;28;20041;-73
2022/07/16 04:18:06;;;;;;;20.85;19.45;;;14.70;99.90;;;;;;5055443;28;20082;-73
2022/07/16 04:20:34;;;;;;;21.08;19.73;;;14.70;99.90;;;;;;5058604;28;20056;-73
2022/07/16 04:23:01;;;;;;;20.88;19.25;;;14.80;99.90;;;;;;5059516;28;20048;-73
2022/07/16 04:25:28;;;;;;;20.98;19.35;;;14.80;99.90;;;;;;5055584;28;20044;-73
2022/07/16 04:27:55;;;;;;;20.90;19.50;;;14.80;99.90;;;;;;5062494;28;20114;-73
2022/07/16 04:30:22;;;;;;;20.30;18.92;;;14.80;99.90;;;;;;5039630;28;20044;-73
2022/07/16 04:32:49;;;;;;;19.88;18.48;;;14.90;99.90;;;;;;5054395;28;20366;-73
2022/07/16 04:35:16;;;;;;;20.50;19.20;;;14.90;99.90;;;;;;5047777;28;20378;-71
2022/07/16 04:37:43;;;;;;;19.83;18.52;;;15.00;99.90;;;;;;5047354;28;20048;-73
2022/07/16 04:40:12;;;;;;;20.75;19.17;;;15.00;99.90;;;;;;5044123;28;20044;-73
2022/07/16 04:42:40;;;;;;;21.63;20.05;;;15.00;99.90;;;;;;5062812;28;20056;-72
2022/07/16 04:45:09;;;;;;;21.77;19.83;;;15.10;99.90;;;;;;5056954;28;20048;-73
2022/07/16 04:47:36;;;;;;;20.73;19.20;;;15.20;99.90;;;;;;5042258;28;20082;-73
2022/07/16 04:50:04;;;;;;;20.50;19.30;;;15.20;99.90;;;;;;5042071;28;20044;-73
2022/07/16 04:52:30;;;;;;;19.85;18.38;;;15.20;99.90;;;;;;5031333;28;20058;-72
2022/07/16 04:54:58;;;;;;;20.58;18.95;;;15.10;99.90;;;;;;5055803;28;20121;-73
2022/07/16 04:57:25;;;;;;;20.50;18.88;;;15.20;99.90;;;;;;5056334;28;20044;-73
2022/07/16 04:59:52;;;;;;;20.25;18.60;;;15.20;99.90;;;;;;5056527;28;20049;-73
2022/07/16 05:05:06;;;;;;;20.05;18.30;;;15.20;99.90;;;;;;5055374;28;20528;-73
2022/07/16 05:07:33;;;;;;;19.73;18.17;;;15.30;99.90;;;;;;5054550;28;20201;-73
2022/07/16 05:10:00;;;;;;;20.08;18.58;;;15.30;99.90;;;;;;5041112;28;20055;-73
2022/07/16 05:12:27;;;;;;;18.95;17.85;;;15.30;99.90;;;;;;5038799;28;20353;-73
2022/07/16 05:14:54;;;;;;;21.38;19.85;;;15.40;99.90;;;;;;5060655;28;20049;-72
2022/07/16 05:17:21;;;;;;;20.80;19.08;;;15.40;99.90;;;;;;5057527;28;20040;-73
2022/07/16 05:19:47;;;;;;;20.45;19.05;;;15.50;99.90;;;;;;5056984;28;20070;-73
2022/07/16 05:22:14;;;;;;;19.45;18.23;;;15.50;99.90;;;;;;5044500;28;20297;-73
2022/07/16 05:24:41;;;;;;;20.50;19.10;;;15.50;99.90;;;;;;5061086;28;20665;-73
2022/07/16 05:27:08;;;;;;;19.75;18.45;;;15.50;99.90;;;;;;5059048;28;20068;-73
2022/07/16 05:29:34;;;;;;;20.48;19.15;;;15.60;99.90;;;;;;5067380;28;20076;-72
2022/07/16 05:32:01;;;;;;;20.08;18.83;;;15.60;99.90;;;;;;5067934;28;20115;-72
2022/07/16 05:34:28;;;;;;;20.60;18.92;;;15.60;99.90;;;;;;5058397;28;20041;-72
2022/07/16 05:36:55;;;;;;;19.80;18.50;;;15.60;99.90;;;;;;5042742;28;20114;-72
2022/07/16 05:39:29;;;;;;;19.90;18.58;;;15.60;99.90;;;;;;5062034;28;20512;-73
2022/07/16 05:41:56;;;;;;;20.85;19.48;;;15.50;99.90;;;;;;5063184;28;20051;-73
2022/07/16 05:44:23;;;;;;;20.83;19.35;;;15.60;99.90;;;;;;5061160;28;20048;-73
2022/07/16 05:46:51;;;;;;;21.08;19.35;;;15.60;99.90;;;;;;5050583;28;20032;-73
2022/07/16 05:49:17;;;;;;;21.83;20.08;;;15.50;99.90;;;;;;5034745;28;20072;-73
2022/07/16 05:51:44;;;;;;;21.80;20.30;;;15.50;99.90;;;;;;5029963;28;20521;-73
2022/07/16 05:54:11;;;;;;;21.80;20.10;;;15.50;99.90;;;;;;5028606;28;20118;-73
2022/07/16 05:56:37;;;;;;;22.73;21.02;;;15.40;99.90;;;;;;5063798;28;20549;-73
2022/07/16 05:59:04;;;;;;;22.23;20.45;;;15.50;99.90;;;;;;5047836;28;20054;-73
2022/07/16 06:01:31;;;;;;;21.38;19.75;;;15.40;99.90;;;;;;5039707;28;20064;-73
2022/07/16 06:03:58;;;;;;;21.80;20.50;;;15.40;99.90;;;;;;5045542;28;20249;-73
2022/07/16 06:06:25;;;;;;;21.75;20.35;;;15.40;99.90;;;;;;5047305;28;20131;-73
2022/07/16 06:08:52;;;;;;;21.90;20.58;;;15.40;99.90;;;;;;5066453;28;20033;-73
2022/07/16 06:11:19;;;;;;;21.23;19.70;;;15.40;99.90;;;;;;5065028;28;20567;-73
2022/07/16 06:13:46;;;;;;;22.00;20.08;;;15.30;99.90;;;;;;5043257;28;20044;-73
2022/07/16 06:16:13;;;;;;;21.77;20.40;;;15.20;99.90;;;;;;5057557;28;20254;-73
2022/07/16 06:18:41;;;;;;;21.33;19.70;;;15.10;99.90;;;;;;5063605;28;20041;-72
2022/07/16 06:21:08;;;;;;;20.25;18.73;;;14.80;99.90;;;;;;5035629;28;20136;-72
2022/07/16 06:23:35;;;;;;;21.50;19.85;;;14.40;99.90;;;;;;5065969;28;20051;-71
2022/07/16 06:26:02;;;;;;;18.65;15.35;;;14.20;99.90;;;;;;5023085;28;20147;-72
2022/07/16 06:28:29;;;;;;;23.08;15.23;;;14.00;99.90;;;;;;5058812;28;20083;-73
2022/07/16 06:30:55;;;;;;;16.75;15.15;;;13.90;99.90;;;;;;5035194;28;20445;-72
2022/07/16 06:33:22;;;;;;;15.80;14.20;;;13.70;99.90;;;;;;5053086;28;20268;-72
2022/07/16 06:35:49;;;;;;;15.38;13.00;;;13.70;99.90;;;;;;5060721;28;20100;-72
2022/07/16 06:38:16;;;;;;;13.93;12.40;;;13.60;99.90;;;;;;5065720;28;20044;-72
2022/07/16 06:40:43;;;;;;;16.83;13.57;;;13.60;99.90;;;;;;5054481;28;20055;-72
2022/07/16 06:43:10;;;;;;;15.60;14.00;;;13.50;99.90;;;;;;5057097;28;20059;-72
2022/07/16 06:45:43;;;;;;;16.45;13.65;;;13.50;99.90;;;;;;5058250;28;20052;-72
2022/07/16 06:48:10;;;;;;;21.13;13.90;;;13.40;99.90;;;;;;5039274;28;20036;-72
2022/07/16 06:50:37;;;;;;;20.90;14.77;;;13.50;99.90;;;;;;5038282;28;20052;-72
2022/07/16 06:53:04;;;;;;;18.55;14.65;;;13.50;99.90;;;;;;5041710;28;20047;-70
2022/07/16 06:55:31;;;;;;;19.85;16.17;;;13.60;99.90;;;;;;5032094;28;20102;-72
2022/07/16 06:57:58;;;;;;;25.05;18.42;;;13.60;99.90;;;;;;5058167;28;20048;-73
2022/07/16 07:00:25;;;;;;;20.90;16.55;;;13.70;99.90;;;;;;5058662;28;20538;-72
2022/07/16 07:02:52;;;;;;;19.73;16.10;;;13.80;99.90;;;;;;5063165;28;20041;-72
2022/07/16 07:05:19;;;;;;;21.63;17.58;;;13.80;99.90;;;;;;5027243;28;20123;-71
2022/07/16 07:07:45;;;;;;;26.88;19.15;;;13.90;99.90;;;;;;5039107;28;20086;-72
2022/07/16 07:10:14;;;;;;;22.13;18.42;;;13.90;99.90;;;;;;5064451;28;20033;-72
2022/07/16 07:12:42;;;;;;;24.10;19.30;;;14.00;99.90;;;;;;5034947;28;20672;-72
2022/07/16 07:15:09;;;;;;;21.10;18.58;;;14.20;99.90;;;;;;5032917;28;20094;-72
2022/07/16 07:17:36;;;;;;;22.73;18.38;;;14.30;99.90;;;;;;5051212;28;20514;-72
2022/07/16 07:20:05;;;;;;;16.90;15.00;;;14.30;99.90;;;;;;5046383;28;20798;-72
2022/07/16 07:22:33;;;;;;;21.60;18.45;;;14.30;99.90;;;;;;5055887;28;20535;-72
2022/07/16 07:25:00;;;;;;;22.95;19.02;;;14.30;99.90;;;;;;5037812;28;20532;-71
2022/07/16 07:27:26;;;;;;;22.33;18.00;;;14.30;99.90;;;;;;5047549;28;20065;-72
2022/07/16 07:29:53;;;;;;;22.55;17.48;;;14.50;99.90;;;;;;5037830;28;20044;-72
2022/07/16 07:32:20;;;;;;;20.52;17.80;;;14.60;99.90;;;;;;5058514;28;20521;-73
2022/07/16 07:34:47;;;;;;;20.98;15.98;;;14.80;99.90;;;;;;5037514;28;20036;-72
2022/07/16 07:37:14;;;;;;;15.63;14.07;;;14.80;99.90;;;;;;5059137;28;20540;-72
2022/07/16 07:39:41;;;;;;;16.95;14.52;;;14.90;99.90;;;;;;5049672;28;20076;-72
2022/07/16 07:42:08;;;;;;;15.75;14.07;;;14.90;99.90;;;;;;5047887;28;20124;-72
2022/07/16 07:44:35;;;;;;;16.75;14.80;;;15.00;99.90;;;;;;5058570;28;20456;-72
2022/07/16 07:47:01;;;;;;;13.20;11.80;;;15.10;99.90;;;;;;5059241;28;20098;-72
2022/07/16 07:49:28;;;;;;;17.90;12.65;;;15.30;99.90;;;;;;5039912;28;20071;-72
2022/07/16 07:51:55;;;;;;;15.05;12.98;;;15.50;99.90;;;;;;5017499;28;20490;-72
2022/07/16 07:54:22;;;;;;;11.60;10.57;;;15.60;99.90;;;;;;5059555;28;20267;-72
2022/07/16 07:56:49;;;;;;;13.27;12.07;;;15.70;99.90;;;;;;5037617;28;20064;-72
2022/07/16 07:59:16;;;;;;;11.30;10.35;;;15.80;99.90;;;;;;5035121;28;20418;-72
2022/07/16 08:01:43;;;;;;;13.38;12.20;;;15.90;99.90;;;;;;5058782;28;20114;-73
2022/07/16 08:04:10;;;;;;;13.93;12.82;;;15.80;99.90;;;;;;5061644;28;20063;-70
2022/07/16 08:06:37;;;;;;;11.98;10.90;;;15.90;99.90;;;;;;5041523;28;20593;-71
2022/07/16 08:09:04;;;;;;;13.88;12.85;;;16.30;99.90;;;;;;5061800;28;20067;-70
2022/07/16 08:11:33;;;;;;;15.57;14.13;;;16.50;99.90;;;;;;5037009;28;20545;-70
2022/07/16 08:13:59;;;;;;;17.58;16.27;;;16.40;99.90;;;;;;5036413;28;20606;-70
2022/07/16 08:16:46;;;;;;;16.80;15.50;;;16.40;99.90;;;;;;5040314;28;20409;-71
2022/07/16 08:19:13;;;;;;;16.83;15.52;;;17.00;99.90;;;;;;5044775;28;20123;-71
2022/07/16 08:21:40;;;;;;;17.65;16.17;;;17.10;99.90;;;;;;5051557;28;20463;-71
2022/07/16 08:26:52;;;;;;;16.45;14.95;;;16.90;99.90;;;;;;5056131;28;20351;-71
2022/07/16 08:29:19;;;;;;;18.30;16.70;;;16.90;99.90;;;;;;5060255;28;20551;-71
2022/07/16 08:31:46;;;;;;;18.05;16.58;;;16.90;99.90;;;;;;5034191;28;20380;-71
2022/07/16 08:34:13;;;;;;;16.98;15.68;;;16.90;99.90;;;;;;5033105;28;20071;-71
2022/07/16 08:36:39;;;;;;;17.05;15.63;;;16.90;99.90;;;;;;5057751;28;20101;-71
2022/07/16 08:39:06;;;;;;;15.88;14.73;;;17.00;99.90;;;;;;5060530;28;20060;-70
2022/07/16 08:41:35;;;;;;;17.27;16.08;;;17.20;99.90;;;;;;5038606;28;20051;-71
2022/07/16 08:44:02;;;;;;;17.63;16.42;;;17.10;99.90;;;;;;5051152;28;20048;-71
2022/07/16 08:46:29;;;;;;;18.02;16.77;;;16.90;99.90;;;;;;5056537;28;20288;-71
2022/07/16 08:48:57;;;;;;;17.08;15.75;;;16.90;99.90;;;;;;5056570;28;20041;-72
2022/07/16 08:51:30;;;;;;;19.27;18.08;;;17.20;99.90;;;;;;5043809;28;20037;-70
2022/07/16 08:54:05;;;;;;;18.67;17.23;;;17.50;99.90;;;;;;5058025;28;20406;-72
2022/07/16 08:56:33;;;;;;;21.05;19.80;;;18.00;99.90;;;;;;5059212;28;20457;-71
2022/07/16 08:59:01;;;;;;;22.33;20.55;;;18.40;99.90;;;;;;5039680;28;20068;-72
2022/07/16 09:01:31;;;;;;;21.65;19.95;;;18.30;99.90;;;;;;5046190;28;20048;-72
2022/07/16 09:04:00;;;;;;;21.52;20.20;;;18.20;99.90;;;;;;5055185;28;20055;-71
2022/07/16 09:06:27;;;;;;;20.77;19.33;;;17.80;99.90;;;;;;5053842;28;20044;-72
2022/07/16 09:08:54;;;;;;;21.17;19.88;;;17.70;99.90;;;;;;5069011;28;20486;-71
2022/07/16 09:11:41;;;;;;;20.30;19.00;;;17.50;99.90;;;;;;5055926;28;20036;-71
2022/07/16 09:14:13;;;;;;;19.98;18.65;;;17.40;99.90;;;;;;5066070;28;20264;-71
2022/07/16 09:16:47;;;;;;;20.20;19.00;;;17.40;99.90;;;;;;5042113;28;20048;-71
2022/07/16 09:19:15;;;;;;;21.70;20.20;;;17.40;99.90;;;;;;5038566;28;20049;-71
2022/07/16 09:22:11;;;;;;;20.38;19.15;;;17.40;99.90;;;;;;5036110;28;20600;-71
2022/07/16 09:24:44;;;;;;;21.02;19.63;;;17.70;99.90;;;;;;5044479;28;20049;-71
2022/07/16 09:27:17;;;;;;;21.33;20.02;;;17.80;99.90;;;;;;5046681;28;20098;-71
2022/07/16 09:29:51;;;;;;;20.60;19.48;;;18.20;99.90;;;;;;5065206;28;20433;-71
2022/07/16 09:32:30;;;;;;;21.37;20.13;;;18.40;99.90;;;;;;5057234;28;20040;-71
2022/07/16 09:35:29;;;;;;;22.13;21.00;;;18.40;99.90;;;;;;5061714;28;20088;-71
2022/07/16 09:38:00;;;;;;;21.02;19.77;;;18.50;99.90;;;;;;5008294;28;20056;-71
2022/07/16 09:40:34;;;;;;;21.15;19.98;;;18.80;99.90;;;;;;5052800;28;20113;-71
2022/07/16 09:43:03;;;;;;;21.08;20.05;;;18.80;99.90;;;;;;5044120;28;20044;-73
2022/07/16 09:45:30;;;;;;;21.42;20.13;;;19.00;99.90;;;;;;5083254;22;20052;-69
2022/07/16 09:47:57;;;;;;;22.27;20.88;;;19.60;99.90;;;;;;5074458;28;20071;-69
2022/07/16 09:50:35;;;;;;;22.05;20.48;;;19.90;99.90;;;;;;5055418;28;20490;-68
2022/07/16 09:53:28;;;;;;;21.88;20.42;;;19.90;99.90;;;;;;5074403;28;20283;-69
2022/07/16 09:56:06;;;;;;;20.63;19.42;;;19.60;99.90;;;;;;5056962;28;20073;-69
2022/07/16 09:58:34;;;;;;;21.88;20.33;;;19.60;99.90;;;;;;5042245;28;20094;-69
2022/07/16 10:01:03;;;;;;;21.15;19.95;;;19.80;99.90;;;;;;5044058;28;20045;-69
2022/07/16 10:03:34;;;;;;;21.80;20.38;;;20.00;99.90;;;;;;5042950;28;20056;-69
2022/07/16 10:06:01;;;;;;;22.38;21.00;;;19.80;99.90;;;;;;5047058;28;20233;-69
2022/07/16 10:08:27;;;;;;;22.83;21.20;;;19.60;99.90;;;;;;5045844;28;20184;-69
2022/07/16 10:10:55;;;;;;;22.13;20.73;;;19.90;99.90;;;;;;5042402;28;20065;-69
2022/07/16 10:13:26;;;;;;;20.88;19.67;;;20.10;99.90;;;;;;5044627;28;20119;-68
2022/07/16 10:15:54;;;;;;;21.45;19.98;;;19.80;99.90;;;;;;5048336;28;20048;-69
2022/07/16 10:18:37;;;;;;;20.30;19.02;;;19.60;99.90;;;;;;5030111;28;20064;-69
2022/07/16 10:21:14;;;;;;;20.75;19.55;;;19.80;99.90;;;;;;5045724;28;20056;-69
2022/07/16 10:23:45;;;;;;;21.27;20.00;;;19.70;99.90;;;;;;5044171;28;20040;-68
2022/07/16 10:26:18;;;;;;;21.60;20.30;;;19.60;99.90;;;;;;5043985;28;20115;-68
2022/07/16 10:28:51;;;;;;;21.63;20.35;;;19.50;99.90;;;;;;5042241;28;20129;-69
2022/07/16 10:31:36;;;;;;;21.75;20.45;;;19.50;99.90;;;;;;5040439;28;20270;-69
2022/07/16 10:34:15;;;;;;;;;;;19.50;99.90;;;;;;5027365;28;20795;-69
2022/07/16 10:36:55;;;;;;;21.80;20.33;;;19.40;99.90;;;;;;5024623;28;20367;-69
2022/07/16 10:39:24;;;;;;;20.98;19.85;;;19.10;99.90;;;;;;5029396;28;20076;-69
2022/07/16 10:41:57;;;;;;;22.35;20.90;;;18.80;99.90;;;;;;5044556;28;20036;-68
2022/07/16 10:44:48;;;;;;;20.55;19.13;;;18.90;99.90;;;;;;5021424;28;20152;-69
2022/07/16 10:47:16;;;;;;;20.17;18.90;;;19.60;99.90;;;;;;5044448;28;20242;-69
2022/07/16 10:49:44;;;;;;;21.05;19.85;;;20.30;99.90;;;;;;5025721;28;20044;-69
2022/07/16 10:52:15;;;;;;;23.30;21.65;;;20.30;99.90;;;;;;5046419;28;20041;-68
2022/07/16 10:54:49;;;;;;;21.50;20.30;;;20.40;99.90;;;;;;5044438;28;20161;-69
2022/07/16 10:57:17;;;;;;;20.73;19.48;;;20.70;99.90;;;;;;5043502;28;20109;-69
2022/07/16 10:59:46;;;;;;;21.02;19.38;;;20.80;99.90;;;;;;5043064;28;20053;-69
2022/07/16 11:02:17;;;;;;;22.98;21.65;;;20.70;99.90;;;;;;5045556;28;20032;-69
2022/07/16 11:04:47;;;;;;;21.30;19.73;;;20.20;99.90;;;;;;5042676;28;20466;-69
2022/07/16 11:07:17;;;;;;;23.13;21.50;;;19.80;99.90;;;;;;5039196;28;20088;-69
2022/07/16 11:09:49;;;;;;;21.77;20.35;;;19.80;99.90;;;;;;5042778;28;20041;-68
2022/07/16 11:12:19;;;;;;;20.65;19.35;;;20.10;99.90;;;;;;5044263;28;20347;-69
2022/07/16 11:14:49;;;;;;;22.90;21.50;;;20.50;99.90;;;;;;5041089;28;20127;-69
2022/07/16 11:17:18;;;;;;;23.33;21.77;;;20.80;99.90;;;;;;5039581;28;20087;-69
2022/07/16 11:19:50;;;;;;;22.17;20.58;;;20.80;99.90;;;;;;5023095;28;20048;-69
2022/07/16 11:22:22;;;;;;;24.45;22.77;;;21.30;99.90;;;;;;5044447;28;20506;-68
2022/07/16 11:24:54;;;;;;;24.48;23.00;;;21.20;99.90;;;;;;5043531;28;20041;-68
2022/07/16 11:27:35;;;;;;;21.10;19.80;;;21.10;99.90;;;;;;5041482;28;20056;-69
2022/07/16 11:30:07;;;;;;;22.48;20.98;;;21.20;99.90;;;;;;5043341;28;20268;-69
2022/07/16 11:32:43;;;;;;;23.60;21.88;;;21.20;99.90;;;;;;5038505;28;20075;-69
2022/07/16 11:35:10;;;;;;;22.60;21.17;;;21.20;99.90;;;;;;5055345;28;20033;-69
2022/07/16 11:37:57;;;;;;;22.15;20.65;;;21.30;99.90;;;;;;5031368;28;20061;-69
2022/07/16 11:40:38;;;;;;;22.48;20.98;;;21.30;99.90;;;;;;5021869;28;20289;-69
2022/07/16 11:43:05;;;;;;;23.38;21.77;;;20.40;99.90;;;;;;5038291;28;20231;-68
2022/07/16 11:45:43;;;;;;;23.70;22.13;;;20.00;99.90;;;;;;5040566;28;20451;-69
2022/07/16 11:48:14;;;;;;;24.33;22.60;;;20.30;99.90;;;;;;5046868;28;20122;-68
2022/07/16 11:50:42;;;;;;;22.60;21.13;;;20.60;99.90;;;;;;5022164;28;20415;-69
2022/07/16 11:53:11;;;;;;;22.52;20.95;;;20.90;99.90;;;;;;5046692;28;20044;-69
2022/07/16 11:55:44;;;;;;;21.85;20.38;;;21.30;99.90;;;;;;5025698;28;20152;-69
2022/07/16 11:58:17;;;;;;;22.40;20.90;;;21.40;99.90;;;;;;5048079;28;20517;-69
2022/07/16 12:00:48;;;;;;;21.45;20.05;;;21.10;99.90;;;;;;5040018;28;20053;-69
2022/07/16 12:03:16;;;;;;;21.83;20.30;;;20.90;99.90;;;;;;5048514;28;20040;-69
2022/07/16 12:05:44;;;;;;;21.33;19.85;;;20.40;99.90;;;;;;5021839;28;20231;-69
2022/07/16 12:08:11;;;;;;;24.60;23.00;;;20.40;99.90;;;;;;5040789;28;20044;-69
2022/07/16 12:11:05;;;;;;;21.90;20.30;;;20.50;99.90;;;;;;5046516;28;20540;-69
2022/07/16 12:13:38;;;;;;;21.42;19.85;;;20.40;99.90;;;;;;5039582;28;20040;-69
2022/07/16 12:16:11;;;;;;;21.40;19.95;;;20.40;99.90;;;;;;5045459;28;20047;-69
2022/07/16 12:18:38;;;;;;;24.95;23.55;;;20.40;99.90;;;;;;5040132;28;20525;-69
2022/07/16 12:21:38;;;;;;;23.50;21.92;;;20.70;99.90;;;;;;5045357;28;20109;-68
2022/07/16 12:24:08;;;;;;;22.85;21.33;;;20.60;99.90;;;;;;5011388;28;20075;-69
2022/07/16 12:26:40;;;;;;;21.88;20.40;;;20.50;99.90;;;;;;5047994;28;20036;-69
2022/07/16 12:29:09;;;;;;;23.88;22.27;;;20.70;99.90;;;;;;5025913;28;20052;-69
2022/07/16 12:31:38;;;;;;;24.10;22.65;;;20.70;99.90;;;;;;5043768;28;20048;-69
2022/07/16 12:34:05;;;;;;;21.77;20.42;;;21.20;99.90;;;;;;5043136;28;20052;-69
2022/07/16 12:36:35;;;;;;;24.17;22.50;;;21.60;99.90;;;;;;5041888;28;20214;-69
2022/07/16 12:39:08;;;;;;;25.13;23.63;;;21.30;99.90;;;;;;5046046;28;20140;-69
2022/07/16 12:41:36;;;;;;;22.92;21.42;;;21.30;99.90;;;;;;5038868;28;20589;-69
2022/07/16 12:44:15;;;;;;;24.00;22.60;;;21.10;99.90;;;;;;5030079;28;20048;-69
2022/07/16 12:46:46;;;;;;;22.08;20.58;;;20.90;99.90;;;;;;5023840;28;20600;-69
2022/07/16 12:49:23;;;;;;;23.48;21.85;;;21.10;99.90;;;;;;5046291;28;20048;-69